createdAt,value
2022-11-29T00:00:52.550Z,49.10
2022-11-29T00:05:57.077Z,50.90
2022-11-29T00:11:12.545Z,44.80
2022-11-29T00:16:15.882Z,39.00
2022-11-29T00:21:19.335Z,41.40
2022-11-29T00:26:24.884Z,36.90
2022-11-29T00:31:31.155Z,72.30
2022-11-29T00:36:35.214Z,63.60
2022-11-29T00:41:39.139Z,56.70
2022-11-29T00:51:46.134Z,48.00
2022-11-29T00:56:50.455Z,40.60
2022-11-29T01:01:53.461Z,46.60
2022-11-29T01:06:56.463Z,43.50
2022-11-29T01:11:59.479Z,50.00
2022-11-29T01:17:02.569Z,52.60
2022-11-29T01:22:06.045Z,49.70
2022-11-29T01:27:10.080Z,40.00
2022-11-29T01:37:15.973Z,46.20
2022-11-29T01:42:18.973Z,48.30
2022-11-29T01:47:21.977Z,44.70
2022-11-29T01:52:31.288Z,49.10
2022-11-29T01:57:36.946Z,54.50
2022-11-29T02:02:55.819Z,48.60
2022-11-29T02:08:00.462Z,54.30
2022-11-29T02:13:51.753Z,45.50
2022-11-29T02:19:31.475Z,45.90
2022-11-29T02:25:04.960Z,42.70
2022-11-29T02:30:53.967Z,53.00
2022-11-29T02:36:24.133Z,53.70
2022-11-29T02:42:04.975Z,52.90
2022-11-29T02:47:43.575Z,54.90
2022-11-29T02:53:24.897Z,49.80
2022-11-29T02:59:01.611Z,32.00
2022-11-29T03:04:31.463Z,47.80
2022-11-29T03:09:58.889Z,45.90
2022-11-29T03:15:23.233Z,42.90
2022-11-29T03:20:51.557Z,30.00
2022-11-29T03:26:13.494Z,45.60
2022-11-29T03:31:30.285Z,48.80
2022-11-29T03:36:42.762Z,47.10
2022-11-29T03:42:00.925Z,44.50
2022-11-29T03:47:09.383Z,50.60
2022-11-29T03:52:32.996Z,54.80
2022-11-29T03:58:00.805Z,43.20
2022-11-29T04:03:28.614Z,53.20
2022-11-29T04:09:05.247Z,46.30
2022-11-29T04:14:50.377Z,51.80
2022-11-29T04:20:38.812Z,38.50
2022-11-29T04:26:42.491Z,42.80
2022-11-29T04:32:27.308Z,50.50
2022-11-29T04:38:20.723Z,39.50
2022-11-29T04:44:04.993Z,50.80
2022-11-29T04:49:46.361Z,51.50
2022-11-29T04:55:20.798Z,50.30
2022-11-29T05:00:31.653Z,45.40
2022-11-29T05:06:00.727Z,44.20
2022-11-29T05:11:32.588Z,54.30
2022-11-29T05:17:14.152Z,50.20
2022-11-29T05:22:41.675Z,52.00
2022-11-29T05:28:31.140Z,46.90
2022-11-29T05:34:20.956Z,51.40
2022-11-29T05:40:08.892Z,49.60
2022-11-29T05:45:23.464Z,49.50
2022-11-29T05:51:21.230Z,45.00
2022-11-29T05:57:01.587Z,46.80
2022-11-29T06:02:27.613Z,49.20
2022-11-29T06:07:44.898Z,50.90
2022-11-29T06:13:22.979Z,51.70
2022-11-29T06:19:17.297Z,46.60
2022-11-29T06:24:29.937Z,44.60
2022-11-29T06:30:04.245Z,52.50
2022-11-29T06:35:48.156Z,48.20
2022-11-29T06:40:54.932Z,46.00
2022-11-29T06:46:29.448Z,48.30
2022-11-29T06:52:08.087Z,46.20
2022-11-29T06:57:40.365Z,45.30
2022-11-29T07:03:08.587Z,45.00
2022-11-29T07:08:21.830Z,52.70
2022-11-29T07:13:25.215Z,47.60
2022-11-29T07:18:51.529Z,52.60
2022-11-29T07:24:22.732Z,53.10
2022-11-29T07:29:35.032Z,57.20
2022-11-29T07:34:48.793Z,46.90
2022-11-29T07:40:11.734Z,40.90
2022-11-29T07:45:39.627Z,38.70
2022-11-29T07:50:43.417Z,47.20
2022-11-29T07:55:47.990Z,49.50
2022-11-29T08:00:51.078Z,46.80
2022-11-29T08:05:54.140Z,49.20
2022-11-29T08:10:57.142Z,44.90
2022-11-29T08:16:00.229Z,49.10
2022-11-29T08:21:09.390Z,44.80
2022-11-29T08:26:12.494Z,48.70
2022-11-29T08:31:15.540Z,35.50
2022-11-29T08:36:20.847Z,48.40
2022-11-29T08:41:24.369Z,44.40
2022-11-29T08:46:47.316Z,39.60
2022-11-29T08:52:15.702Z,57.70
2022-11-29T08:57:46.751Z,70.30
2022-11-29T09:02:41.770Z,91.30
2022-11-29T09:07:46.528Z,216.30
2022-11-29T09:12:51.474Z,113.50
2022-11-29T09:17:54.487Z,185.40
2022-11-29T09:22:59.419Z,95.70
2022-11-29T09:28:03.330Z,131.70
2022-11-29T09:38:12.879Z,68.00
2022-11-29T09:43:29.092Z,135.80
2022-11-29T09:49:15.898Z,78.40
2022-11-29T09:54:36.151Z,118.10
2022-11-29T09:59:45.898Z,74.00
2022-11-29T10:04:56.259Z,90.70
2022-11-29T10:10:23.043Z,101.80
2022-11-29T10:15:37.809Z,119.20
2022-11-29T10:20:48.775Z,146.90
2022-11-29T10:25:57.912Z,128.80
2022-11-29T10:31:28.799Z,158.60
2022-11-29T10:36:45.492Z,84.70
2022-11-29T10:41:56.983Z,102.70
2022-11-29T10:47:10.506Z,92.90
2022-11-29T10:52:20.417Z,61.40
2022-11-29T10:57:24.088Z,74.10
2022-11-29T11:02:28.147Z,53.50
2022-11-29T11:07:36.426Z,66.10
2022-11-29T11:12:39.539Z,173.40
2022-11-29T11:18:01.400Z,141.60
2022-11-29T11:23:08.114Z,379.40
2022-11-29T11:28:20.623Z,139.70
2022-11-29T11:33:29.617Z,95.50
2022-11-29T11:39:09.425Z,80.40
2022-11-29T11:44:52.287Z,56.30
2022-11-29T11:55:43.388Z,147.10
2022-11-29T12:01:13.947Z,75.30
2022-11-29T12:06:28.941Z,71.60
2022-11-29T12:11:53.425Z,92.20
2022-11-29T12:17:08.346Z,74.40
2022-11-29T12:22:22.003Z,134.80
2022-11-29T12:33:13.475Z,259.10
2022-11-29T12:38:35.670Z,203.10
2022-11-29T12:44:39.419Z,95.40
2022-11-29T12:50:10.181Z,130.30
2022-11-29T12:55:38.316Z,80.00
2022-11-29T13:01:18.161Z,130.60
2022-11-29T13:06:49.942Z,495.10
2022-11-29T13:12:03.855Z,107.30
2022-11-29T13:17:53.790Z,183.70
2022-11-29T13:23:38.982Z,119.50
2022-11-29T13:28:48.399Z,194.80
2022-11-29T13:34:27.614Z,279.80
2022-11-29T13:40:14.221Z,206.00
2022-11-29T13:45:26.004Z,437.90
2022-11-29T13:50:44.659Z,255.60
2022-11-29T13:55:50.826Z,266.60
2022-11-29T14:01:01.228Z,122.10
2022-11-29T14:06:27.335Z,105.50
2022-11-29T14:11:37.524Z,252.60
2022-11-29T14:17:05.377Z,301.20
2022-11-29T14:22:21.833Z,257.90
2022-11-29T14:27:24.803Z,186.10
2022-11-29T14:32:30.838Z,105.20
2022-11-29T14:38:29.219Z,81.10
2022-11-29T14:43:38.506Z,283.60
2022-11-29T14:48:56.871Z,372.10
2022-11-29T14:54:06.654Z,661.60
2022-11-29T14:59:45.948Z,344.10
2022-11-29T15:04:52.353Z,248.60
2022-11-29T15:10:01.352Z,120.80
2022-11-29T15:15:44.976Z,129.60
2022-11-29T15:21:12.925Z,104.70
2022-11-29T15:26:22.228Z,94.50
2022-11-29T15:31:25.315Z,63.60
2022-11-29T15:36:29.208Z,66.50
2022-11-29T15:41:35.729Z,62.70
2022-11-29T15:46:38.786Z,95.20
2022-11-29T15:51:42.286Z,89.50
2022-11-29T15:57:03.679Z,74.50
2022-11-29T16:02:23.296Z,262.00
2022-11-29T16:07:32.793Z,67.10
2022-11-29T16:12:35.851Z,66.20
2022-11-29T16:17:39.062Z,89.00
2022-11-29T16:22:42.562Z,318.30
2022-11-29T16:27:46.478Z,86.80
2022-11-29T16:33:03.536Z,83.60
2022-11-29T16:38:20.096Z,162.50
2022-11-29T16:43:43.636Z,75.70
2022-11-29T16:53:52.184Z,85.20
2022-11-29T16:59:25.385Z,89.30
2022-11-29T17:04:26.629Z,254.10
2022-11-29T17:09:34.512Z,57.30
2022-11-29T17:14:37.526Z,93.80
2022-11-29T17:19:40.517Z,97.90
2022-11-29T17:24:48.301Z,70.50
2022-11-29T17:29:51.702Z,119.40
2022-11-29T17:34:54.820Z,92.90
2022-11-29T17:39:57.900Z,83.00
2022-11-29T17:45:00.921Z,83.90
2022-11-29T17:50:04.373Z,118.60
2022-11-29T17:55:08.267Z,110.70
2022-11-29T18:00:13.552Z,88.80
2022-11-29T18:05:17.595Z,124.40
2022-11-29T18:15:24.006Z,80.80
2022-11-29T18:20:26.989Z,54.40
2022-11-29T18:25:38.626Z,93.10
2022-11-29T18:30:42.895Z,67.70
2022-11-29T18:35:46.658Z,114.90
2022-11-29T18:40:50.028Z,64.30
2022-11-29T18:45:53.123Z,97.40
2022-11-29T18:51:01.879Z,174.20
2022-11-29T18:56:13.743Z,117.40
2022-11-29T19:01:19.612Z,69.60
2022-11-29T19:06:38.546Z,139.10
2022-11-29T19:11:43.068Z,216.30
2022-11-29T19:16:48.625Z,370.40
2022-11-29T19:21:51.665Z,342.00
2022-11-29T19:26:57.656Z,393.50
2022-11-29T19:32:00.635Z,483.90
2022-11-29T19:37:03.616Z,189.40
2022-11-29T19:42:06.650Z,57.20
2022-11-29T19:47:09.634Z,124.80
2022-11-29T19:52:12.644Z,61.10
2022-11-29T19:57:15.728Z,206.20
2022-11-29T20:02:18.871Z,87.60
2022-11-29T20:07:22.082Z,235.70
2022-11-29T20:12:25.137Z,309.70
2022-11-29T20:17:28.107Z,249.00
2022-11-29T20:22:31.081Z,160.40
2022-11-29T20:27:34.148Z,317.40
2022-11-29T20:32:37.431Z,80.90
2022-11-29T20:37:49.674Z,147.40
2022-11-29T20:43:36.101Z,197.00
2022-11-29T20:48:39.442Z,101.90
2022-11-29T20:53:47.130Z,99.30
2022-11-29T20:58:50.163Z,58.60
2022-11-29T21:03:53.816Z,114.30
2022-11-29T21:08:56.861Z,122.50
2022-11-29T21:14:04.020Z,139.30
2022-11-29T21:19:07.506Z,98.40
2022-11-29T21:24:55.616Z,103.60
2022-11-29T21:29:59.369Z,495.90
2022-11-29T21:35:02.379Z,362.90
2022-11-29T21:40:07.744Z,182.30
2022-11-29T21:45:15.121Z,128.90
2022-11-29T21:50:19.106Z,87.20
2022-11-29T21:55:22.122Z,136.10
2022-11-29T22:00:25.290Z,91.00
2022-11-29T22:05:28.279Z,276.50
2022-11-29T22:10:32.473Z,181.70
2022-11-29T22:15:35.587Z,184.00
2022-11-29T22:20:38.603Z,115.00
2022-11-29T22:25:41.606Z,108.10
2022-11-29T22:30:44.589Z,50.60
2022-11-29T22:35:47.581Z,98.30
2022-11-29T22:40:50.564Z,127.10
2022-11-29T22:45:53.549Z,141.70
2022-11-29T22:51:09.906Z,54.00
2022-11-29T22:56:13.385Z,54.50
2022-11-29T23:01:22.998Z,63.60
2022-11-29T23:06:29.189Z,97.40
2022-11-29T23:11:32.825Z,62.40
2022-11-29T23:16:35.910Z,42.20
2022-11-29T23:21:41.089Z,48.10
2022-11-29T23:26:47.407Z,85.30
2022-11-29T23:31:50.575Z,83.10
2022-11-29T23:36:53.631Z,52.30
2022-11-29T23:41:56.636Z,48.90
2022-11-29T23:46:59.626Z,51.20
2022-11-29T23:52:02.662Z,55.30
2022-11-29T23:57:05.870Z,62.90
